Des Moines, IA

1:26 PM CST on November 21, 2014 (GMT -0600)
Witmer Park | Change Station
CLOSE
Current Station
Personal Weather Station
Location: Des Moines, IA
Elevation: 892 ft
Nearby Weather Stations
Active Advisory: Freezing Rain Advisory Active Notice: Record Report

Elev 892 ft 41.61 °N, 93.66 °W | Updated 7 seconds ago

Partly Cloudy
Partly Cloudy
38.7 °F
Feels Like 34 °F
N
6.9
Wind Variable Wind from SW
Gusts 7.0 mph

Today
High -- | Low -- °F
--% Chance of Precip.
Yesterday
High -- | Low -- °F
Precip. -- in
7:10 AM 4:49 PM
Waning Crescent, 1% visible
Pressure 30.22 in
Visibility 10.0 miles
Clouds Few 22000 ft
Scattered Clouds 24000 ft
Overcast 26000 ft
Windchill 34 °F
Dew Point 24 °F
Humidity 56%
Rainfall 0.00 in
Snow Depth Not available.
UV 1 out of 12
Pollen .10 out of 12
Air Quality Not available.
Flu Activity Not available.
METAR KDSM 211854Z 15010KT 10SM FEW220 SCT240 OVC260 03/M07 A3018 RMK AO2 SLP233 T00331072

More Conditions Fewer Conditions

Pressure 30.22 in
Visibility 10.0 miles
Clouds Few 22000 ft
Scattered Clouds 24000 ft
Overcast 26000 ft
Windchill 34 °F
Dew Point 24 °F
Humidity 56%
Rainfall 0.00 in
Snow Depth Not available.
UV 1 out of 12
Pollen .10 out of 12
Air Quality Not available.
Flu Activity Not available.
METAR KDSM 211854Z 15010KT 10SM FEW220 SCT240 OVC260 03/M07 A3018 RMK AO2 SLP233 T00331072

More Conditions Fewer Conditions

10-Day Weather Forecast

Almanac

Astronomy

Nov. 21, 2014 Rise Set
Actual Time
Civil Twilight
Nautical Twilight
Astronomical Twilight
Moon
Length of Visible Light
Length of Day
Tomorrow will be .
, % of the Moon is Illuminated

Today's Extremes

State Highs State Lows

Community

WunderPhotos

Upload Photos

1,772,703 photos uploaded!

WunderBlogs® & News

Nearby

Air Quality

  Air Quality AQ Index Pollutant
Not available.

Snow Depth

Station Depth Elevation

Earthquake Activity

City Distance Mag. Time & Date
Minimum magnitude displayed is 2.5.

Coastal Water Temperatures

Place Temperature

Nearby Weather Stations